sensor_id;sensor_type;location;lat;lon;timestamp;pressure;altitude;pressure_sealevel;temperature;humidity
84890;BME280;75153;52.222;5.160;2024-03-02T00:01:58;99709.56;;;8.95;68.14
84890;BME280;75153;52.222;5.160;2024-03-02T00:04:23;99718.13;;;8.82;69.47
84890;BME280;75153;52.222;5.160;2024-03-02T00:06:51;99718.06;;;8.87;69.01
84890;BME280;75153;52.222;5.160;2024-03-02T00:09:18;99716.34;;;8.77;69.64
84890;BME280;75153;52.222;5.160;2024-03-02T00:11:43;99729.78;;;8.76;69.54
84890;BME280;75153;52.222;5.160;2024-03-02T00:14:09;99750.44;;;8.83;68.95
84890;BME280;75153;52.222;5.160;2024-03-02T00:16:34;99737.66;;;8.76;68.47
84890;BME280;75153;52.222;5.160;2024-03-02T00:19:02;99716.06;;;8.79;68.96
84890;BME280;75153;52.222;5.160;2024-03-02T00:21:30;99787.97;;;8.88;68.25
84890;BME280;75153;52.222;5.160;2024-03-02T00:23:56;99793.19;;;8.93;68.02
84890;BME280;75153;52.222;5.160;2024-03-02T00:26:22;99816.22;;;9.02;67.75
84890;BME280;75153;52.222;5.160;2024-03-02T00:28:47;99830.72;;;8.99;68.80
84890;BME280;75153;52.222;5.160;2024-03-02T00:31:15;99824.53;;;8.90;69.91
84890;BME280;75153;52.222;5.160;2024-03-02T00:33:46;99822.72;;;8.85;70.50
84890;BME280;75153;52.222;5.160;2024-03-02T00:36:16;99820.28;;;8.65;72.37
84890;BME280;75153;52.222;5.160;2024-03-02T00:38:49;99823.31;;;8.53;72.88
84890;BME280;75153;52.222;5.160;2024-03-02T00:41:22;99829.56;;;8.57;72.13
84890;BME280;75153;52.222;5.160;2024-03-02T00:44:01;99832.22;;;8.18;75.17
84890;BME280;75153;52.222;5.160;2024-03-02T00:46:29;99832.94;;;8.28;74.41
84890;BME280;75153;52.222;5.160;2024-03-02T00:49:00;99825.91;;;8.24;74.65
84890;BME280;75153;52.222;5.160;2024-03-02T00:51:27;99839.59;;;8.16;75.27
84890;BME280;75153;52.222;5.160;2024-03-02T00:53:55;99831.75;;;8.10;75.61
84890;BME280;75153;52.222;5.160;2024-03-02T00:56:22;99824.53;;;7.92;77.79
84890;BME280;75153;52.222;5.160;2024-03-02T00:58:48;99832.66;;;7.96;76.48
84890;BME280;75153;52.222;5.160;2024-03-02T01:01:13;99839.69;;;8.00;76.45
84890;BME280;75153;52.222;5.160;2024-03-02T01:03:39;99845.53;;;7.92;77.49
84890;BME280;75153;52.222;5.160;2024-03-02T01:06:05;99837.16;;;7.90;77.32
84890;BME280;75153;52.222;5.160;2024-03-02T01:08:30;99843.22;;;7.80;78.24
84890;BME280;75153;52.222;5.160;2024-03-02T01:10:56;99839.31;;;7.78;78.36
84890;BME280;75153;52.222;5.160;2024-03-02T01:13:22;99834.09;;;7.73;78.18
84890;BME280;75153;52.222;5.160;2024-03-02T01:15:48;99826.72;;;7.75;78.26
84890;BME280;75153;52.222;5.160;2024-03-02T01:18:14;99839.84;;;7.75;78.43
84890;BME280;75153;52.222;5.160;2024-03-02T01:20:39;99847.75;;;7.70;78.34
84890;BME280;75153;52.222;5.160;2024-03-02T01:23:05;99837.50;;;7.73;78.08
84890;BME280;75153;52.222;5.160;2024-03-02T01:25:31;99851.94;;;7.76;78.41
84890;BME280;75153;52.222;5.160;2024-03-02T01:27:56;99854.81;;;7.74;78.31
84890;BME280;75153;52.222;5.160;2024-03-02T01:30:21;99849.06;;;7.67;78.55
84890;BME280;75153;52.222;5.160;2024-03-02T01:32:47;99854.59;;;7.71;78.63
84890;BME280;75153;52.222;5.160;2024-03-02T01:35:12;99843.81;;;7.72;78.33
84890;BME280;75153;52.222;5.160;2024-03-02T01:37:38;99840.97;;;7.63;78.68
84890;BME280;75153;52.222;5.160;2024-03-02T01:40:03;99855.63;;;7.70;78.38
84890;BME280;75153;52.222;5.160;2024-03-02T01:42:35;99847.25;;;7.68;78.23
84890;BME280;75153;52.222;5.160;2024-03-02T01:45:01;99842.78;;;7.68;78.78
84890;BME280;75153;52.222;5.160;2024-03-02T01:47:27;99845.13;;;7.70;78.35
84890;BME280;75153;52.222;5.160;2024-03-02T01:49:52;99855.66;;;7.64;78.87
84890;BME280;75153;52.222;5.160;2024-03-02T01:52:18;99846.53;;;7.52;79.72
84890;BME280;75153;52.222;5.160;2024-03-02T01:54:43;99855.72;;;7.54;79.29
84890;BME280;75153;52.222;5.160;2024-03-02T01:57:09;99863.56;;;7.54;79.50
84890;BME280;75153;52.222;5.160;2024-03-02T01:59:35;99868.28;;;7.57;79.23
84890;BME280;75153;52.222;5.160;2024-03-02T02:02:00;99868.81;;;7.54;79.41
84890;BME280;75153;52.222;5.160;2024-03-02T02:04:26;99881.69;;;7.51;79.34
84890;BME280;75153;52.222;5.160;2024-03-02T02:06:53;99871.22;;;7.51;79.47
84890;BME280;75153;52.222;5.160;2024-03-02T02:09:19;99855.19;;;7.47;79.76
84890;BME280;75153;52.222;5.160;2024-03-02T02:11:44;99859.13;;;7.50;79.25
84890;BME280;75153;52.222;5.160;2024-03-02T02:14:10;99858.09;;;7.46;80.36
84890;BME280;75153;52.222;5.160;2024-03-02T02:16:36;99864.44;;;7.39;80.42
84890;BME280;75153;52.222;5.160;2024-03-02T02:19:02;99876.75;;;7.39;79.95
84890;BME280;75153;52.222;5.160;2024-03-02T02:21:28;99890.94;;;7.33;80.48
84890;BME280;75153;52.222;5.160;2024-03-02T02:23:53;99868.16;;;7.28;80.62
84890;BME280;75153;52.222;5.160;2024-03-02T02:26:19;99862.38;;;7.26;80.88
84890;BME280;75153;52.222;5.160;2024-03-02T02:28:44;99846.88;;;7.30;80.55
84890;BME280;75153;52.222;5.160;2024-03-02T02:31:15;99860.81;;;7.20;81.12
84890;BME280;75153;52.222;5.160;2024-03-02T02:33:41;99849.03;;;7.23;80.13
84890;BME280;75153;52.222;5.160;2024-03-02T02:36:06;99860.84;;;7.15;81.27
84890;BME280;75153;52.222;5.160;2024-03-02T02:38:34;99858.47;;;7.18;80.75
84890;BME280;75153;52.222;5.160;2024-03-02T02:41:02;99871.06;;;7.16;81.17
84890;BME280;75153;52.222;5.160;2024-03-02T02:43:27;99877.09;;;7.22;80.50
84890;BME280;75153;52.222;5.160;2024-03-02T02:45:52;99863.69;;;7.24;80.13
84890;BME280;75153;52.222;5.160;2024-03-02T02:48:18;99868.94;;;7.18;80.63
84890;BME280;75153;52.222;5.160;2024-03-02T02:50:43;99877.38;;;7.00;81.96
84890;BME280;75153;52.222;5.160;2024-03-02T02:53:09;99863.47;;;7.10;80.81
84890;BME280;75153;52.222;5.160;2024-03-02T02:55:35;99869.00;;;7.08;81.08
84890;BME280;75153;52.222;5.160;2024-03-02T02:58:08;99875.25;;;7.07;81.25
84890;BME280;75153;52.222;5.160;2024-03-02T03:00:33;99878.16;;;7.11;81.07
84890;BME280;75153;52.222;5.160;2024-03-02T03:02:58;99867.41;;;7.12;81.20
84890;BME280;75153;52.222;5.160;2024-03-02T03:05:24;99878.69;;;7.08;81.26
84890;BME280;75153;52.222;5.160;2024-03-02T03:07:49;99879.19;;;7.10;80.86
84890;BME280;75153;52.222;5.160;2024-03-02T03:10:16;99873.69;;;7.11;80.74
84890;BME280;75153;52.222;5.160;2024-03-02T03:12:42;99881.03;;;7.14;80.68
84890;BME280;75153;52.222;5.160;2024-03-02T03:15:09;99876.84;;;7.13;80.79
84890;BME280;75153;52.222;5.160;2024-03-02T03:17:35;99869.47;;;7.15;80.55
84890;BME280;75153;52.222;5.160;2024-03-02T03:20:01;99869.53;;;7.00;80.99
84890;BME280;75153;52.222;5.160;2024-03-02T03:22:27;99874.72;;;7.15;79.98
84890;BME280;75153;52.222;5.160;2024-03-02T03:24:52;99883.66;;;7.09;80.88
84890;BME280;75153;52.222;5.160;2024-03-02T03:27:18;99885.75;;;7.12;80.76
84890;BME280;75153;52.222;5.160;2024-03-02T03:29:45;99883.66;;;7.14;80.42
84890;BME280;75153;52.222;5.160;2024-03-02T03:32:10;99882.88;;;7.14;80.47
84890;BME280;75153;52.222;5.160;2024-03-02T03:34:36;99885.22;;;7.10;80.65
84890;BME280;75153;52.222;5.160;2024-03-02T03:37:02;99884.97;;;7.12;80.21
84890;BME280;75153;52.222;5.160;2024-03-02T03:39:27;99887.88;;;7.05;80.80
84890;BME280;75153;52.222;5.160;2024-03-02T03:41:54;99889.97;;;7.08;80.60
84890;BME280;75153;52.222;5.160;2024-03-02T03:44:19;99882.09;;;7.03;80.81
84890;BME280;75153;52.222;5.160;2024-03-02T03:46:45;99887.06;;;7.05;79.91
84890;BME280;75153;52.222;5.160;2024-03-02T03:49:10;99893.63;;;7.07;79.48
84890;BME280;75153;52.222;5.160;2024-03-02T03:51:36;99888.91;;;7.04;79.55
84890;BME280;75153;52.222;5.160;2024-03-02T03:54:01;99897.28;;;7.11;79.49
84890;BME280;75153;52.222;5.160;2024-03-02T03:56:27;99903.84;;;7.04;79.71
84890;BME280;75153;52.222;5.160;2024-03-02T03:58:52;99906.47;;;7.09;79.46
84890;BME280;75153;52.222;5.160;2024-03-02T04:01:18;99903.56;;;7.10;79.59
84890;BME280;75153;52.222;5.160;2024-03-02T04:03:43;99902.53;;;7.11;79.22
84890;BME280;75153;52.222;5.160;2024-03-02T04:06:08;99907.25;;;7.14;79.66
84890;BME280;75153;52.222;5.160;2024-03-02T04:08:34;99910.41;;;7.11;79.25
84890;BME280;75153;52.222;5.160;2024-03-02T04:10:59;99915.66;;;7.11;79.49
84890;BME280;75153;52.222;5.160;2024-03-02T04:13:25;99915.13;;;7.09;79.36
84890;BME280;75153;52.222;5.160;2024-03-02T04:15:50;99908.84;;;7.05;79.50
84890;BME280;75153;52.222;5.160;2024-03-02T04:18:16;99914.06;;;7.10;79.57
84890;BME280;75153;52.222;5.160;2024-03-02T04:20:41;99915.91;;;7.10;79.54
84890;BME280;75153;52.222;5.160;2024-03-02T04:23:07;99911.47;;;7.05;79.18
84890;BME280;75153;52.222;5.160;2024-03-02T04:25:33;99913.28;;;7.15;79.02
84890;BME280;75153;52.222;5.160;2024-03-02T04:27:58;99914.03;;;7.20;78.93
84890;BME280;75153;52.222;5.160;2024-03-02T04:30:23;99908.56;;;7.12;79.10
84890;BME280;75153;52.222;5.160;2024-03-02T04:32:50;99910.94;;;7.08;79.13
84890;BME280;75153;52.222;5.160;2024-03-02T04:35:16;99915.09;;;7.14;78.79
84890;BME280;75153;52.222;5.160;2024-03-02T04:37:41;99910.13;;;7.13;78.87
84890;BME280;75153;52.222;5.160;2024-03-02T04:40:07;99919.56;;;7.14;78.53
84890;BME280;75153;52.222;5.160;2024-03-02T04:42:36;99923.75;;;7.20;78.46
84890;BME280;75153;52.222;5.160;2024-03-02T04:45:01;99918.50;;;7.10;79.07
84890;BME280;75153;52.222;5.160;2024-03-02T04:47:27;99921.94;;;7.00;79.67
84890;BME280;75153;52.222;5.160;2024-03-02T04:49:52;99927.19;;;7.05;79.31
84890;BME280;75153;52.222;5.160;2024-03-02T04:52:18;99928.75;;;7.06;79.25
84890;BME280;75153;52.222;5.160;2024-03-02T04:54:43;99932.97;;;7.02;78.85
84890;BME280;75153;52.222;5.160;2024-03-02T04:57:27;99931.63;;;7.05;78.96
84890;BME280;75153;52.222;5.160;2024-03-02T04:59:53;99943.94;;;7.04;78.79
84890;BME280;75153;52.222;5.160;2024-03-02T05:02:18;99944.47;;;7.01;78.74
84890;BME280;75153;52.222;5.160;2024-03-02T05:04:44;99945.28;;;6.96;78.94
84890;BME280;75153;52.222;5.160;2024-03-02T05:07:09;99951.31;;;6.92;78.85
84890;BME280;75153;52.222;5.160;2024-03-02T05:09:35;99952.38;;;6.91;79.17
84890;BME280;75153;52.222;5.160;2024-03-02T05:12:00;99950.53;;;6.91;78.93
84890;BME280;75153;52.222;5.160;2024-03-02T05:14:55;99955.50;;;6.93;78.98
84890;BME280;75153;52.222;5.160;2024-03-02T05:17:20;99943.44;;;6.92;78.87
84890;BME280;75153;52.222;5.160;2024-03-02T05:19:45;99950.28;;;6.83;79.34
84890;BME280;75153;52.222;5.160;2024-03-02T05:22:11;99956.03;;;6.80;79.28
84890;BME280;75153;52.222;5.160;2024-03-02T05:24:36;99949.19;;;6.73;79.31
84890;BME280;75153;52.222;5.160;2024-03-02T05:27:02;99955.50;;;6.72;79.19
84890;BME280;75153;52.222;5.160;2024-03-02T05:29:27;99959.19;;;6.71;79.25
84890;BME280;75153;52.222;5.160;2024-03-02T05:31:52;99961.25;;;6.69;79.14
84890;BME280;75153;52.222;5.160;2024-03-02T05:34:18;99959.16;;;6.66;78.92
84890;BME280;75153;52.222;5.160;2024-03-02T05:36:43;99961.25;;;6.54;79.45
84890;BME280;75153;52.222;5.160;2024-03-02T05:39:09;99961.25;;;6.59;78.81
84890;BME280;75153;52.222;5.160;2024-03-02T05:41:35;99971.19;;;6.62;78.61
84890;BME280;75153;52.222;5.160;2024-03-02T05:44:01;99970.44;;;6.51;78.99
84890;BME280;75153;52.222;5.160;2024-03-02T05:46:27;99973.03;;;6.51;79.27
84890;BME280;75153;52.222;5.160;2024-03-02T05:48:52;99979.84;;;6.52;79.14
84890;BME280;75153;52.222;5.160;2024-03-02T05:51:17;99973.56;;;6.43;79.07
84890;BME280;75153;52.222;5.160;2024-03-02T05:53:43;99976.41;;;6.42;78.62
84890;BME280;75153;52.222;5.160;2024-03-02T05:56:09;99978.50;;;6.45;78.65
84890;BME280;75153;52.222;5.160;2024-03-02T05:58:34;99977.19;;;6.42;79.07
84890;BME280;75153;52.222;5.160;2024-03-02T06:01:16;99970.66;;;6.40;79.04
84890;BME280;75153;52.222;5.160;2024-03-02T06:03:43;99979.06;;;6.47;78.26
84890;BME280;75153;52.222;5.160;2024-03-02T06:06:09;99983.75;;;6.45;78.63
84890;BME280;75153;52.222;5.160;2024-03-02T06:08:34;99991.59;;;6.45;78.26
84890;BME280;75153;52.222;5.160;2024-03-02T06:11:00;99981.41;;;6.48;78.04
84890;BME280;75153;52.222;5.160;2024-03-02T06:13:26;99982.19;;;6.49;78.01
84890;BME280;75153;52.222;5.160;2024-03-02T06:15:52;99982.19;;;6.49;78.20
84890;BME280;75153;52.222;5.160;2024-03-02T06:18:17;99981.69;;;6.57;77.97
84890;BME280;75153;52.222;5.160;2024-03-02T06:20:42;99987.97;;;6.56;77.72
84890;BME280;75153;52.222;5.160;2024-03-02T06:23:08;99994.28;;;6.60;77.56
84890;BME280;75153;52.222;5.160;2024-03-02T06:25:33;99990.06;;;6.64;77.56
84890;BME280;75153;52.222;5.160;2024-03-02T06:27:59;99996.09;;;6.65;77.49
84890;BME280;75153;52.222;5.160;2024-03-02T06:30:24;99996.63;;;6.72;77.55
84890;BME280;75153;52.222;5.160;2024-03-02T06:32:49;100001.59;;;6.73;77.32
84890;BME280;75153;52.222;5.160;2024-03-02T06:35:15;100003.16;;;6.64;77.36
84890;BME280;75153;52.222;5.160;2024-03-02T06:37:40;100007.13;;;6.72;77.21
84890;BME280;75153;52.222;5.160;2024-03-02T06:40:07;100003.19;;;6.69;77.55
84890;BME280;75153;52.222;5.160;2024-03-02T06:42:33;100006.84;;;6.68;77.33
84890;BME280;75153;52.222;5.160;2024-03-02T06:44:59;100012.59;;;6.70;77.29
84890;BME280;75153;52.222;5.160;2024-03-02T06:47:25;100018.88;;;6.64;76.68
84890;BME280;75153;52.222;5.160;2024-03-02T06:49:51;100019.44;;;6.77;77.29
84890;BME280;75153;52.222;5.160;2024-03-02T06:52:16;100012.63;;;6.81;77.08
84890;BME280;75153;52.222;5.160;2024-03-02T06:54:42;100012.09;;;6.79;77.00
84890;BME280;75153;52.222;5.160;2024-03-02T06:57:07;100017.88;;;6.81;76.87
84890;BME280;75153;52.222;5.160;2024-03-02T06:59:32;100015.25;;;6.86;76.55
84890;BME280;75153;52.222;5.160;2024-03-02T07:01:58;100019.44;;;6.77;76.34
84890;BME280;75153;52.222;5.160;2024-03-02T07:04:24;100019.94;;;6.73;76.00
84890;BME280;75153;52.222;5.160;2024-03-02T07:06:49;100021.53;;;6.74;76.72
84890;BME280;75153;52.222;5.160;2024-03-02T07:09:16;100026.25;;;6.78;76.79
84890;BME280;75153;52.222;5.160;2024-03-02T07:11:42;100013.41;;;6.86;76.24
84890;BME280;75153;52.222;5.160;2024-03-02T07:14:08;100018.13;;;6.84;75.84
84890;BME280;75153;52.222;5.160;2024-03-02T07:16:33;100013.66;;;6.85;75.55
84890;BME280;75153;52.222;5.160;2024-03-02T07:19:00;100017.34;;;6.89;76.02
84890;BME280;75153;52.222;5.160;2024-03-02T07:21:27;100016.56;;;6.98;75.64
84890;BME280;75153;52.222;5.160;2024-03-02T07:23:53;100015.78;;;6.98;75.22
84890;BME280;75153;52.222;5.160;2024-03-02T07:26:18;100022.59;;;7.04;74.61
84890;BME280;75153;52.222;5.160;2024-03-02T07:28:48;100025.22;;;7.04;74.79
84890;BME280;75153;52.222;5.160;2024-03-02T07:31:14;100036.75;;;7.08;74.45
84890;BME280;75153;52.222;5.160;2024-03-02T07:33:40;100031.53;;;7.13;74.05
84890;BME280;75153;52.222;5.160;2024-03-02T07:36:07;100038.06;;;7.21;74.24
84890;BME280;75153;52.222;5.160;2024-03-02T07:38:32;100042.50;;;7.15;73.65
84890;BME280;75153;52.222;5.160;2024-03-02T07:40:59;100034.94;;;7.14;73.39
84890;BME280;75153;52.222;5.160;2024-03-02T07:43:25;100039.91;;;7.20;73.54
84890;BME280;75153;52.222;5.160;2024-03-02T07:45:51;100043.28;;;7.16;73.08
84890;BME280;75153;52.222;5.160;2024-03-02T07:48:16;100045.69;;;7.28;73.26
84890;BME280;75153;52.222;5.160;2024-03-02T07:50:42;100049.59;;;7.20;73.46
84890;BME280;75153;52.222;5.160;2024-03-02T07:53:08;100049.59;;;7.20;73.30
84890;BME280;75153;52.222;5.160;2024-03-02T07:55:34;100045.16;;;7.20;73.08
84890;BME280;75153;52.222;5.160;2024-03-02T07:58:00;100053.78;;;7.16;73.40
84890;BME280;75153;52.222;5.160;2024-03-02T08:00:28;100062.72;;;7.20;73.18
84890;BME280;75153;52.222;5.160;2024-03-02T08:02:54;100060.63;;;7.17;73.21
84890;BME280;75153;52.222;5.160;2024-03-02T08:05:20;100062.69;;;7.05;72.90
84890;BME280;75153;52.222;5.160;2024-03-02T08:07:46;100066.09;;;7.10;73.37
84890;BME280;75153;52.222;5.160;2024-03-02T08:10:12;100059.06;;;7.11;73.57
84890;BME280;75153;52.222;5.160;2024-03-02T08:12:38;100055.09;;;7.18;73.48
84890;BME280;75153;52.222;5.160;2024-03-02T08:15:04;100061.94;;;7.14;73.33
84890;BME280;75153;52.222;5.160;2024-03-02T08:17:30;100067.19;;;7.25;73.35
84890;BME280;75153;52.222;5.160;2024-03-02T08:19:55;100074.78;;;7.36;73.04
84890;BME280;75153;52.222;5.160;2024-03-02T08:22:21;100068.22;;;7.49;72.97
84890;BME280;75153;52.222;5.160;2024-03-02T08:24:47;100062.19;;;7.59;72.53
84890;BME280;75153;52.222;5.160;2024-03-02T08:27:12;100070.81;;;7.54;72.05
84890;BME280;75153;52.222;5.160;2024-03-02T08:29:38;100066.06;;;7.72;72.21
84890;BME280;75153;52.222;5.160;2024-03-02T08:32:04;100060.28;;;7.90;71.69
84890;BME280;75153;52.222;5.160;2024-03-02T08:34:30;100066.53;;;7.94;71.06
84890;BME280;75153;52.222;5.160;2024-03-02T08:36:55;100046.84;;;8.02;70.98
84890;BME280;75153;52.222;5.160;2024-03-02T08:39:20;100058.38;;;8.06;70.87
84890;BME280;75153;52.222;5.160;2024-03-02T08:41:46;100047.06;;;8.10;71.12
84890;BME280;75153;52.222;5.160;2024-03-02T08:44:12;100038.38;;;8.15;70.81
84890;BME280;75153;52.222;5.160;2024-03-02T08:46:38;100055.41;;;8.23;70.01
84890;BME280;75153;52.222;5.160;2024-03-02T08:49:04;100050.44;;;8.21;69.89
84890;BME280;75153;52.222;5.160;2024-03-02T08:51:30;100045.41;;;8.35;69.11
84890;BME280;75153;52.222;5.160;2024-03-02T08:53:56;100048.81;;;8.30;69.23
84890;BME280;75153;52.222;5.160;2024-03-02T08:56:21;100044.59;;;8.45;69.01
84890;BME280;75153;52.222;5.160;2024-03-02T08:58:49;100047.72;;;8.47;69.21
84890;BME280;75153;52.222;5.160;2024-03-02T09:01:14;100051.88;;;8.58;68.57
84890;BME280;75153;52.222;5.160;2024-03-02T09:03:40;100059.44;;;8.65;68.85
84890;BME280;75153;52.222;5.160;2024-03-02T09:06:05;100060.19;;;8.75;68.85
84890;BME280;75153;52.222;5.160;2024-03-02T09:08:31;100060.44;;;8.74;68.32
84890;BME280;75153;52.222;5.160;2024-03-02T09:10:56;100066.44;;;8.85;68.04
84890;BME280;75153;52.222;5.160;2024-03-02T09:13:22;100066.63;;;8.93;66.66
84890;BME280;75153;52.222;5.160;2024-03-02T09:15:47;100073.41;;;8.99;67.55
84890;BME280;75153;52.222;5.160;2024-03-02T09:18:13;100073.34;;;9.10;67.39
84890;BME280;75153;52.222;5.160;2024-03-02T09:20:38;100076.25;;;9.08;67.42
84890;BME280;75153;52.222;5.160;2024-03-02T09:23:04;100079.31;;;9.26;66.29
84890;BME280;75153;52.222;5.160;2024-03-02T09:25:29;100081.88;;;9.31;65.79
84890;BME280;75153;52.222;5.160;2024-03-02T09:27:55;100085.34;;;9.26;65.70
84890;BME280;75153;52.222;5.160;2024-03-02T09:30:20;100089.47;;;9.37;65.97
84890;BME280;75153;52.222;5.160;2024-03-02T09:32:45;100082.59;;;9.36;66.26
84890;BME280;75153;52.222;5.160;2024-03-02T09:35:11;100090.44;;;9.47;65.82
84890;BME280;75153;52.222;5.160;2024-03-02T09:37:37;100084.56;;;9.55;66.02
84890;BME280;75153;52.222;5.160;2024-03-02T09:40:03;100080.56;;;9.62;64.66
84890;BME280;75153;52.222;5.160;2024-03-02T09:42:29;100088.13;;;9.69;64.60
84890;BME280;75153;52.222;5.160;2024-03-02T09:44:54;100080.22;;;9.69;63.94
84890;BME280;75153;52.222;5.160;2024-03-02T09:47:20;100084.94;;;9.72;63.81
84890;BME280;75153;52.222;5.160;2024-03-02T09:49:45;100086.41;;;9.83;64.39
84890;BME280;75153;52.222;5.160;2024-03-02T09:52:11;100088.47;;;9.86;63.12
84890;BME280;75153;52.222;5.160;2024-03-02T09:54:38;100082.09;;;9.93;62.65
84890;BME280;75153;52.222;5.160;2024-03-02T09:57:04;100073.78;;;10.04;62.58
84890;BME280;75153;52.222;5.160;2024-03-02T09:59:29;100077.31;;;10.19;62.95
84890;BME280;75153;52.222;5.160;2024-03-02T10:01:59;100086.22;;;10.28;62.57
84890;BME280;75153;52.222;5.160;2024-03-02T10:04:29;100075.31;;;10.34;61.16
84890;BME280;75153;52.222;5.160;2024-03-02T10:07:16;100082.03;;;10.46;61.51
84890;BME280;75153;52.222;5.160;2024-03-02T10:09:43;100085.81;;;10.40;60.16
84890;BME280;75153;52.222;5.160;2024-03-02T10:12:10;100079.91;;;10.48;60.09
84890;BME280;75153;52.222;5.160;2024-03-02T10:14:40;100088.28;;;10.50;59.71
84890;BME280;75153;52.222;5.160;2024-03-02T10:17:07;100079.53;;;10.54;59.40
84890;BME280;75153;52.222;5.160;2024-03-02T10:19:33;100066.44;;;10.68;59.69
84890;BME280;75153;52.222;5.160;2024-03-02T10:22:01;100067.41;;;10.72;59.15
84890;BME280;75153;52.222;5.160;2024-03-02T10:24:35;100075.00;;;10.79;57.63
84890;BME280;75153;52.222;5.160;2024-03-02T10:27:06;100075.47;;;11.00;58.14
84890;BME280;75153;52.222;5.160;2024-03-02T10:29:36;100072.75;;;11.05;58.24
84890;BME280;75153;52.222;5.160;2024-03-02T10:32:03;100070.94;;;11.19;57.44
84890;BME280;75153;52.222;5.160;2024-03-02T10:34:28;100071.53;;;11.16;56.78
84890;BME280;75153;52.222;5.160;2024-03-02T10:36:54;100071.66;;;11.25;56.95
84890;BME280;75153;52.222;5.160;2024-03-02T10:39:20;100078.72;;;11.30;56.80
84890;BME280;75153;52.222;5.160;2024-03-02T10:41:47;100063.84;;;11.34;56.40
84890;BME280;75153;52.222;5.160;2024-03-02T10:44:15;100071.69;;;11.39;56.02
84890;BME280;75153;52.222;5.160;2024-03-02T10:46:43;100068.56;;;11.37;55.57
84890;BME280;75153;52.222;5.160;2024-03-02T10:49:10;100057.06;;;11.46;55.80
84890;BME280;75153;52.222;5.160;2024-03-02T10:51:36;100055.81;;;11.58;55.64
84890;BME280;75153;52.222;5.160;2024-03-02T10:54:03;100062.66;;;11.73;56.61
84890;BME280;75153;52.222;5.160;2024-03-02T10:56:30;100058.06;;;11.64;54.54
84890;BME280;75153;52.222;5.160;2024-03-02T11:01:39;100041.63;;;11.81;55.08
84890;BME280;75153;52.222;5.160;2024-03-02T11:04:08;100041.06;;;11.98;53.53
84890;BME280;75153;52.222;5.160;2024-03-02T11:06:35;100043.53;;;11.95;53.43
84890;BME280;75153;52.222;5.160;2024-03-02T11:09:06;100044.59;;;12.07;53.96
84890;BME280;75153;52.222;5.160;2024-03-02T11:11:36;100044.97;;;12.15;52.78
84890;BME280;75153;52.222;5.160;2024-03-02T11:14:04;100044.97;;;12.15;53.82
84890;BME280;75153;52.222;5.160;2024-03-02T11:16:34;100043.19;;;12.24;53.47
84890;BME280;75153;52.222;5.160;2024-03-02T11:19:08;100050.22;;;12.28;52.80
84890;BME280;75153;52.222;5.160;2024-03-02T11:21:35;100047.69;;;12.37;53.96
84890;BME280;75153;52.222;5.160;2024-03-02T11:26:46;100043.50;;;12.58;51.03
84890;BME280;75153;52.222;5.160;2024-03-02T11:32:06;100044.31;;;12.81;52.42
84890;BME280;75153;52.222;5.160;2024-03-02T11:34:41;100035.47;;;12.86;51.29
84890;BME280;75153;52.222;5.160;2024-03-02T11:37:10;100040.84;;;12.95;51.78
84890;BME280;75153;52.222;5.160;2024-03-02T11:39:37;100036.19;;;13.00;51.79
84890;BME280;75153;52.222;5.160;2024-03-02T11:42:05;100041.78;;;12.99;51.46
84890;BME280;75153;52.222;5.160;2024-03-02T11:44:33;100033.78;;;13.13;51.28
84890;BME280;75153;52.222;5.160;2024-03-02T11:47:00;100031.06;;;13.04;49.83
84890;BME280;75153;52.222;5.160;2024-03-02T11:49:39;100034.50;;;13.27;50.83
84890;BME280;75153;52.222;5.160;2024-03-02T11:52:07;100041.72;;;13.35;50.75
84890;BME280;75153;52.222;5.160;2024-03-02T11:54:33;100031.13;;;13.35;50.52
84890;BME280;75153;52.222;5.160;2024-03-02T11:57:16;100032.09;;;13.39;48.01
84890;BME280;75153;52.222;5.160;2024-03-02T11:59:43;100030.19;;;13.31;49.05
84890;BME280;75153;52.222;5.160;2024-03-02T12:02:18;100030.09;;;13.22;48.83
84890;BME280;75153;52.222;5.160;2024-03-02T12:04:45;100028.16;;;13.28;48.41
84890;BME280;75153;52.222;5.160;2024-03-02T12:07:12;100037.03;;;13.32;49.71
84890;BME280;75153;52.222;5.160;2024-03-02T12:09:38;100025.72;;;13.40;49.13
84890;BME280;75153;52.222;5.160;2024-03-02T12:14:30;100017.97;;;13.53;49.46
84890;BME280;75153;52.222;5.160;2024-03-02T12:16:55;100007.22;;;13.49;49.58
84890;BME280;75153;52.222;5.160;2024-03-02T12:19:21;100002.22;;;13.47;48.97
84890;BME280;75153;52.222;5.160;2024-03-02T12:21:46;99998.53;;;13.66;49.25
84890;BME280;75153;52.222;5.160;2024-03-02T12:24:12;99996.56;;;13.80;48.00
84890;BME280;75153;52.222;5.160;2024-03-02T12:26:37;99992.22;;;13.84;49.01
84890;BME280;75153;52.222;5.160;2024-03-02T12:29:03;99986.47;;;13.91;48.72
84890;BME280;75153;52.222;5.160;2024-03-02T12:31:28;99982.56;;;14.06;48.96
84890;BME280;75153;52.222;5.160;2024-03-02T12:33:54;99966.53;;;14.11;46.74
84890;BME280;75153;52.222;5.160;2024-03-02T12:36:20;99984.75;;;14.04;46.81
84890;BME280;75153;52.222;5.160;2024-03-02T12:38:45;99979.13;;;13.97;46.89
84890;BME280;75153;52.222;5.160;2024-03-02T12:41:14;99967.28;;;14.03;46.41
84890;BME280;75153;52.222;5.160;2024-03-02T12:43:40;99967.28;;;14.03;45.75
84890;BME280;75153;52.222;5.160;2024-03-02T12:46:08;99969.66;;;14.13;46.69
84890;BME280;75153;52.222;5.160;2024-03-02T12:48:35;99959.94;;;13.82;45.77
84890;BME280;75153;52.222;5.160;2024-03-02T12:51:01;99960.88;;;13.95;45.82
84890;BME280;75153;52.222;5.160;2024-03-02T12:53:31;99972.75;;;13.98;45.42
84890;BME280;75153;52.222;5.160;2024-03-02T12:55:57;99969.47;;;14.01;44.32
84890;BME280;75153;52.222;5.160;2024-03-02T12:58:23;99966.53;;;14.02;44.15
84890;BME280;75153;52.222;5.160;2024-03-02T13:00:49;99971.06;;;14.10;44.31
84890;BME280;75153;52.222;5.160;2024-03-02T13:03:14;99964.34;;;14.30;44.48
84890;BME280;75153;52.222;5.160;2024-03-02T13:05:48;99969.50;;;14.27;44.02
84890;BME280;75153;52.222;5.160;2024-03-02T13:08:16;99953.28;;;14.28;42.73
84890;BME280;75153;52.222;5.160;2024-03-02T13:10:42;99958.28;;;14.38;43.46
84890;BME280;75153;52.222;5.160;2024-03-02T13:13:07;99950.16;;;14.35;43.47